sensor_id;sensor_type;location;lat;lon;timestamp;P1;durP1;ratioP1;P2;durP2;ratioP2
52432;SDS011;38352;53.244;6.594;2022-10-18T00:00:39;27.58;;;15.93;;
52432;SDS011;38352;53.244;6.594;2022-10-18T00:03:05;33.05;;;17.77;;
52432;SDS011;38352;53.244;6.594;2022-10-18T00:05:31;24.52;;;17.23;;
52432;SDS011;38352;53.244;6.594;2022-10-18T00:07:57;31.13;;;16.73;;
52432;SDS011;38352;53.244;6.594;2022-10-18T00:10:23;27.23;;;16.67;;
52432;SDS011;38352;53.244;6.594;2022-10-18T00:12:49;28.75;;;16.05;;
52432;SDS011;38352;53.244;6.594;2022-10-18T00:15:15;31.77;;;18.50;;
52432;SDS011;38352;53.244;6.594;2022-10-18T00:17:42;31.00;;;17.73;;
52432;SDS011;38352;53.244;6.594;2022-10-18T00:20:08;30.15;;;16.77;;
52432;SDS011;38352;53.244;6.594;2022-10-18T00:22:38;27.70;;;16.10;;
52432;SDS011;38352;53.244;6.594;2022-10-18T00:25:05;26.50;;;15.50;;
52432;SDS011;38352;53.244;6.594;2022-10-18T00:27:32;30.77;;;18.48;;
52432;SDS011;38352;53.244;6.594;2022-10-18T00:29:58;27.48;;;15.55;;
52432;SDS011;38352;53.244;6.594;2022-10-18T00:32:24;22.50;;;14.50;;
52432;SDS011;38352;53.244;6.594;2022-10-18T00:34:50;22.33;;;14.85;;
52432;SDS011;38352;53.244;6.594;2022-10-18T00:37:16;28.35;;;17.48;;
52432;SDS011;38352;53.244;6.594;2022-10-18T00:39:42;30.02;;;16.85;;
52432;SDS011;38352;53.244;6.594;2022-10-18T00:42:15;31.95;;;17.52;;
52432;SDS011;38352;53.244;6.594;2022-10-18T00:47:08;33.10;;;18.77;;
52432;SDS011;38352;53.244;6.594;2022-10-18T00:49:35;40.38;;;22.00;;
52432;SDS011;38352;53.244;6.594;2022-10-18T00:52:09;58.92;;;27.38;;
52432;SDS011;38352;53.244;6.594;2022-10-18T00:54:37;52.80;;;25.95;;
52432;SDS011;38352;53.244;6.594;2022-10-18T00:57:04;82.85;;;36.67;;
52432;SDS011;38352;53.244;6.594;2022-10-18T00:59:30;47.63;;;26.58;;
52432;SDS011;38352;53.244;6.594;2022-10-18T01:01:56;61.58;;;26.80;;
52432;SDS011;38352;53.244;6.594;2022-10-18T01:04:22;54.45;;;26.95;;
52432;SDS011;38352;53.244;6.594;2022-10-18T01:07:00;53.00;;;27.13;;
52432;SDS011;38352;53.244;6.594;2022-10-18T01:17:13;50.42;;;26.42;;
52432;SDS011;38352;53.244;6.594;2022-10-18T01:20:10;64.60;;;27.50;;
52432;SDS011;38352;53.244;6.594;2022-10-18T01:24:58;46.95;;;25.60;;
52432;SDS011;38352;53.244;6.594;2022-10-18T01:32:57;52.90;;;26.92;;
52432;SDS011;38352;53.244;6.594;2022-10-18T01:35:26;61.13;;;28.33;;
52432;SDS011;38352;53.244;6.594;2022-10-18T01:37:54;101.53;;;38.25;;
52432;SDS011;38352;53.244;6.594;2022-10-18T01:40:22;46.10;;;24.67;;
52432;SDS011;38352;53.244;6.594;2022-10-18T01:42:48;92.10;;;29.00;;
52432;SDS011;38352;53.244;6.594;2022-10-18T01:45:15;66.15;;;25.63;;
52432;SDS011;38352;53.244;6.594;2022-10-18T01:47:42;75.43;;;28.67;;
52432;SDS011;38352;53.244;6.594;2022-10-18T01:50:09;60.70;;;26.77;;
52432;SDS011;38352;53.244;6.594;2022-10-18T01:52:35;58.28;;;25.75;;
52432;SDS011;38352;53.244;6.594;2022-10-18T01:55:01;91.65;;;29.75;;
52432;SDS011;38352;53.244;6.594;2022-10-18T01:57:41;64.00;;;27.33;;
52432;SDS011;38352;53.244;6.594;2022-10-18T02:07:33;89.25;;;28.90;;
52432;SDS011;38352;53.244;6.594;2022-10-18T02:10:10;101.53;;;28.58;;
52432;SDS011;38352;53.244;6.594;2022-10-18T02:12:38;125.75;;;32.00;;
52432;SDS011;38352;53.244;6.594;2022-10-18T02:15:05;119.20;;;35.13;;
52432;SDS011;38352;53.244;6.594;2022-10-18T02:17:32;58.00;;;26.58;;
52432;SDS011;38352;53.244;6.594;2022-10-18T02:19:59;106.43;;;28.02;;
52432;SDS011;38352;53.244;6.594;2022-10-18T02:22:27;82.47;;;24.85;;
52432;SDS011;38352;53.244;6.594;2022-10-18T02:24:55;68.03;;;24.65;;
52432;SDS011;38352;53.244;6.594;2022-10-18T02:27:23;88.10;;;27.05;;
52432;SDS011;38352;53.244;6.594;2022-10-18T02:29:49;64.57;;;24.10;;
52432;SDS011;38352;53.244;6.594;2022-10-18T02:34:59;70.70;;;23.77;;
52432;SDS011;38352;53.244;6.594;2022-10-18T02:37:27;86.68;;;21.65;;
52432;SDS011;38352;53.244;6.594;2022-10-18T02:39:54;84.65;;;26.55;;
52432;SDS011;38352;53.244;6.594;2022-10-18T02:42:20;105.18;;;23.38;;
52432;SDS011;38352;53.244;6.594;2022-10-18T02:44:47;69.70;;;22.30;;
52432;SDS011;38352;53.244;6.594;2022-10-18T02:47:13;63.80;;;20.80;;
52432;SDS011;38352;53.244;6.594;2022-10-18T02:49:39;96.65;;;26.23;;
52432;SDS011;38352;53.244;6.594;2022-10-18T02:52:05;84.10;;;23.67;;
52432;SDS011;38352;53.244;6.594;2022-10-18T02:54:31;105.05;;;23.67;;
52432;SDS011;38352;53.244;6.594;2022-10-18T02:56:57;82.82;;;23.13;;
52432;SDS011;38352;53.244;6.594;2022-10-18T02:59:23;47.78;;;19.17;;
52432;SDS011;38352;53.244;6.594;2022-10-18T03:01:49;181.25;;;34.80;;
52432;SDS011;38352;53.244;6.594;2022-10-18T03:04:15;70.47;;;20.98;;
52432;SDS011;38352;53.244;6.594;2022-10-18T03:06:41;69.55;;;21.17;;
52432;SDS011;38352;53.244;6.594;2022-10-18T03:09:08;47.25;;;19.85;;
52432;SDS011;38352;53.244;6.594;2022-10-18T03:11:34;73.22;;;24.05;;
52432;SDS011;38352;53.244;6.594;2022-10-18T03:14:00;84.18;;;21.05;;
52432;SDS011;38352;53.244;6.594;2022-10-18T03:16:26;68.63;;;22.83;;
52432;SDS011;38352;53.244;6.594;2022-10-18T03:18:52;119.60;;;27.42;;
52432;SDS011;38352;53.244;6.594;2022-10-18T03:21:18;65.50;;;23.52;;
52432;SDS011;38352;53.244;6.594;2022-10-18T03:23:45;53.75;;;19.90;;
52432;SDS011;38352;53.244;6.594;2022-10-18T03:26:11;42.70;;;20.73;;
52432;SDS011;38352;53.244;6.594;2022-10-18T03:28:37;42.75;;;20.95;;
52432;SDS011;38352;53.244;6.594;2022-10-18T03:31:03;56.15;;;23.40;;
52432;SDS011;38352;53.244;6.594;2022-10-18T03:33:30;55.03;;;22.10;;
52432;SDS011;38352;53.244;6.594;2022-10-18T03:35:56;60.40;;;23.80;;
52432;SDS011;38352;53.244;6.594;2022-10-18T03:38:22;49.10;;;20.65;;
52432;SDS011;38352;53.244;6.594;2022-10-18T03:40:48;70.05;;;23.52;;
52432;SDS011;38352;53.244;6.594;2022-10-18T03:43:15;80.78;;;23.40;;
52432;SDS011;38352;53.244;6.594;2022-10-18T03:45:41;45.63;;;20.48;;
52432;SDS011;38352;53.244;6.594;2022-10-18T03:48:07;63.10;;;22.85;;
52432;SDS011;38352;53.244;6.594;2022-10-18T03:50:33;58.92;;;22.45;;
52432;SDS011;38352;53.244;6.594;2022-10-18T03:52:59;59.45;;;23.23;;
52432;SDS011;38352;53.244;6.594;2022-10-18T03:55:25;41.03;;;19.60;;
52432;SDS011;38352;53.244;6.594;2022-10-18T03:57:51;43.85;;;20.10;;
52432;SDS011;38352;53.244;6.594;2022-10-18T04:00:17;43.75;;;20.30;;
52432;SDS011;38352;53.244;6.594;2022-10-18T04:02:43;43.75;;;20.10;;
52432;SDS011;38352;53.244;6.594;2022-10-18T04:05:09;39.03;;;19.58;;
52432;SDS011;38352;53.244;6.594;2022-10-18T04:07:35;52.63;;;20.52;;
52432;SDS011;38352;53.244;6.594;2022-10-18T04:10:01;42.60;;;18.52;;
52432;SDS011;38352;53.244;6.594;2022-10-18T04:12:27;50.22;;;21.23;;
52432;SDS011;38352;53.244;6.594;2022-10-18T04:14:53;41.65;;;19.70;;
52432;SDS011;38352;53.244;6.594;2022-10-18T04:17:20;47.47;;;19.73;;
52432;SDS011;38352;53.244;6.594;2022-10-18T04:19:46;75.43;;;21.55;;
52432;SDS011;38352;53.244;6.594;2022-10-18T04:22:12;43.33;;;19.60;;
52432;SDS011;38352;53.244;6.594;2022-10-18T04:24:38;35.35;;;18.08;;
52432;SDS011;38352;53.244;6.594;2022-10-18T04:27:04;53.60;;;23.40;;
52432;SDS011;38352;53.244;6.594;2022-10-18T04:29:30;34.53;;;18.15;;
52432;SDS011;38352;53.244;6.594;2022-10-18T04:31:57;33.67;;;18.40;;
52432;SDS011;38352;53.244;6.594;2022-10-18T04:34:23;70.75;;;24.33;;
52432;SDS011;38352;53.244;6.594;2022-10-18T04:36:49;35.33;;;17.52;;
52432;SDS011;38352;53.244;6.594;2022-10-18T04:39:15;55.53;;;21.50;;
52432;SDS011;38352;53.244;6.594;2022-10-18T04:41:41;50.03;;;21.42;;
52432;SDS011;38352;53.244;6.594;2022-10-18T04:44:07;53.45;;;20.63;;
52432;SDS011;38352;53.244;6.594;2022-10-18T04:46:33;50.30;;;19.63;;
52432;SDS011;38352;53.244;6.594;2022-10-18T04:49:00;61.60;;;20.58;;
52432;SDS011;38352;53.244;6.594;2022-10-18T04:51:26;42.30;;;18.20;;
52432;SDS011;38352;53.244;6.594;2022-10-18T04:53:53;72.45;;;22.95;;
52432;SDS011;38352;53.244;6.594;2022-10-18T04:56:19;54.85;;;20.75;;
52432;SDS011;38352;53.244;6.594;2022-10-18T04:58:45;63.90;;;22.08;;
52432;SDS011;38352;53.244;6.594;2022-10-18T05:01:11;61.10;;;23.13;;
52432;SDS011;38352;53.244;6.594;2022-10-18T05:03:37;50.10;;;21.88;;
52432;SDS011;38352;53.244;6.594;2022-10-18T05:06:03;89.40;;;27.52;;
52432;SDS011;38352;53.244;6.594;2022-10-18T05:08:30;41.88;;;19.80;;
52432;SDS011;38352;53.244;6.594;2022-10-18T05:10:57;37.58;;;19.50;;
52432;SDS011;38352;53.244;6.594;2022-10-18T05:13:23;34.17;;;19.58;;
52432;SDS011;38352;53.244;6.594;2022-10-18T05:15:49;199.93;;;138.35;;
52432;SDS011;38352;53.244;6.594;2022-10-18T05:18:15;40.03;;;20.83;;
52432;SDS011;38352;53.244;6.594;2022-10-18T05:20:42;39.08;;;19.52;;
52432;SDS011;38352;53.244;6.594;2022-10-18T05:23:08;35.45;;;18.67;;
52432;SDS011;38352;53.244;6.594;2022-10-18T05:25:37;35.70;;;18.25;;
52432;SDS011;38352;53.244;6.594;2022-10-18T05:28:03;34.17;;;19.10;;
52432;SDS011;38352;53.244;6.594;2022-10-18T05:30:29;32.33;;;17.02;;
52432;SDS011;38352;53.244;6.594;2022-10-18T05:32:55;32.40;;;17.48;;
52432;SDS011;38352;53.244;6.594;2022-10-18T05:35:21;32.45;;;17.77;;
52432;SDS011;38352;53.244;6.594;2022-10-18T05:37:47;38.42;;;17.73;;
52432;SDS011;38352;53.244;6.594;2022-10-18T05:40:13;30.92;;;16.38;;
52432;SDS011;38352;53.244;6.594;2022-10-18T05:42:39;34.75;;;16.58;;
52432;SDS011;38352;53.244;6.594;2022-10-18T05:45:06;28.92;;;15.68;;
52432;SDS011;38352;53.244;6.594;2022-10-18T05:47:32;27.25;;;14.00;;
52432;SDS011;38352;53.244;6.594;2022-10-18T05:49:58;28.80;;;14.93;;
52432;SDS011;38352;53.244;6.594;2022-10-18T05:52:24;25.48;;;14.25;;
52432;SDS011;38352;53.244;6.594;2022-10-18T05:54:50;29.80;;;15.18;;
52432;SDS011;38352;53.244;6.594;2022-10-18T05:57:16;25.13;;;14.80;;
52432;SDS011;38352;53.244;6.594;2022-10-18T05:59:42;22.30;;;13.60;;
52432;SDS011;38352;53.244;6.594;2022-10-18T06:02:10;26.67;;;14.90;;
52432;SDS011;38352;53.244;6.594;2022-10-18T06:04:36;44.88;;;15.68;;
52432;SDS011;38352;53.244;6.594;2022-10-18T06:07:02;35.85;;;16.58;;
52432;SDS011;38352;53.244;6.594;2022-10-18T06:09:28;29.00;;;14.75;;
52432;SDS011;38352;53.244;6.594;2022-10-18T06:11:54;28.38;;;13.50;;
52432;SDS011;38352;53.244;6.594;2022-10-18T06:14:21;29.45;;;13.85;;
52432;SDS011;38352;53.244;6.594;2022-10-18T06:16:47;35.30;;;16.38;;
52432;SDS011;38352;53.244;6.594;2022-10-18T06:19:14;27.02;;;13.30;;
52432;SDS011;38352;53.244;6.594;2022-10-18T06:21:41;21.40;;;12.15;;
52432;SDS011;38352;53.244;6.594;2022-10-18T06:24:07;25.27;;;13.23;;
52432;SDS011;38352;53.244;6.594;2022-10-18T06:26:34;25.20;;;12.75;;
52432;SDS011;38352;53.244;6.594;2022-10-18T06:29:00;22.92;;;12.38;;
52432;SDS011;38352;53.244;6.594;2022-10-18T06:31:26;21.58;;;11.70;;
52432;SDS011;38352;53.244;6.594;2022-10-18T06:33:52;24.77;;;12.90;;
52432;SDS011;38352;53.244;6.594;2022-10-18T06:36:19;24.73;;;11.95;;
52432;SDS011;38352;53.244;6.594;2022-10-18T06:38:48;26.15;;;12.73;;
52432;SDS011;38352;53.244;6.594;2022-10-18T06:41:15;26.73;;;13.43;;
52432;SDS011;38352;53.244;6.594;2022-10-18T06:43:42;23.17;;;13.32;;
52432;SDS011;38352;53.244;6.594;2022-10-18T06:46:08;24.00;;;12.90;;
52432;SDS011;38352;53.244;6.594;2022-10-18T06:48:35;23.40;;;13.18;;
52432;SDS011;38352;53.244;6.594;2022-10-18T06:51:02;26.77;;;12.88;;
52432;SDS011;38352;53.244;6.594;2022-10-18T06:53:32;21.65;;;12.02;;
52432;SDS011;38352;53.244;6.594;2022-10-18T06:56:00;19.40;;;11.40;;
52432;SDS011;38352;53.244;6.594;2022-10-18T06:58:26;17.98;;;10.73;;
52432;SDS011;38352;53.244;6.594;2022-10-18T07:00:52;20.85;;;11.65;;
52432;SDS011;38352;53.244;6.594;2022-10-18T07:03:18;18.20;;;10.40;;
52432;SDS011;38352;53.244;6.594;2022-10-18T07:05:46;21.95;;;11.63;;
52432;SDS011;38352;53.244;6.594;2022-10-18T07:08:12;21.60;;;11.23;;
52432;SDS011;38352;53.244;6.594;2022-10-18T07:10:38;23.05;;;11.35;;
52432;SDS011;38352;53.244;6.594;2022-10-18T07:13:04;21.13;;;11.63;;
52432;SDS011;38352;53.244;6.594;2022-10-18T07:15:30;25.50;;;12.23;;
52432;SDS011;38352;53.244;6.594;2022-10-18T07:17:56;23.67;;;11.60;;
52432;SDS011;38352;53.244;6.594;2022-10-18T07:20:22;18.77;;;10.25;;
52432;SDS011;38352;53.244;6.594;2022-10-18T07:22:48;25.83;;;13.90;;
52432;SDS011;38352;53.244;6.594;2022-10-18T07:25:14;19.77;;;10.73;;
52432;SDS011;38352;53.244;6.594;2022-10-18T07:27:41;25.40;;;12.00;;
52432;SDS011;38352;53.244;6.594;2022-10-18T07:30:08;24.67;;;11.73;;
52432;SDS011;38352;53.244;6.594;2022-10-18T07:32:34;22.83;;;11.70;;
52432;SDS011;38352;53.244;6.594;2022-10-18T07:35:00;23.83;;;12.35;;
52432;SDS011;38352;53.244;6.594;2022-10-18T07:37:27;23.58;;;12.63;;
52432;SDS011;38352;53.244;6.594;2022-10-18T07:39:53;57.53;;;37.13;;
52432;SDS011;38352;53.244;6.594;2022-10-18T07:42:19;27.27;;;14.63;;
52432;SDS011;38352;53.244;6.594;2022-10-18T07:44:45;26.73;;;12.45;;
52432;SDS011;38352;53.244;6.594;2022-10-18T07:47:11;22.83;;;13.60;;
52432;SDS011;38352;53.244;6.594;2022-10-18T07:49:37;22.08;;;11.55;;
52432;SDS011;38352;53.244;6.594;2022-10-18T07:52:03;20.55;;;10.35;;
52432;SDS011;38352;53.244;6.594;2022-10-18T07:54:29;19.52;;;10.98;;
52432;SDS011;38352;53.244;6.594;2022-10-18T07:56:55;16.65;;;10.82;;
52432;SDS011;38352;53.244;6.594;2022-10-18T07:59:22;19.60;;;10.13;;
52432;SDS011;38352;53.244;6.594;2022-10-18T08:01:48;20.88;;;10.23;;
52432;SDS011;38352;53.244;6.594;2022-10-18T08:04:14;17.38;;;10.35;;
52432;SDS011;38352;53.244;6.594;2022-10-18T08:06:40;15.43;;;10.05;;
52432;SDS011;38352;53.244;6.594;2022-10-18T08:09:06;19.10;;;10.82;;
52432;SDS011;38352;53.244;6.594;2022-10-18T08:11:32;17.75;;;10.73;;
52432;SDS011;38352;53.244;6.594;2022-10-18T08:13:58;16.90;;;9.18;;
52432;SDS011;38352;53.244;6.594;2022-10-18T08:18:43;15.55;;;9.13;;
52432;SDS011;38352;53.244;6.594;2022-10-18T08:21:10;16.08;;;9.27;;
52432;SDS011;38352;53.244;6.594;2022-10-18T08:36:49;18.58;;;9.68;;
52432;SDS011;38352;53.244;6.594;2022-10-18T08:39:15;19.95;;;11.18;;
52432;SDS011;38352;53.244;6.594;2022-10-18T08:41:47;20.63;;;10.60;;
52432;SDS011;38352;53.244;6.594;2022-10-18T08:44:24;21.98;;;9.75;;
52432;SDS011;38352;53.244;6.594;2022-10-18T08:46:57;19.63;;;8.88;;
52432;SDS011;38352;53.244;6.594;2022-10-18T08:49:26;15.40;;;7.72;;
52432;SDS011;38352;53.244;6.594;2022-10-18T08:51:53;19.23;;;7.90;;
52432;SDS011;38352;53.244;6.594;2022-10-18T08:54:22;19.77;;;7.55;;
52432;SDS011;38352;53.244;6.594;2022-10-18T08:56:53;15.15;;;6.80;;
52432;SDS011;38352;53.244;6.594;2022-10-18T08:59:21;15.40;;;5.75;;
52432;SDS011;38352;53.244;6.594;2022-10-18T09:02:00;14.70;;;4.70;;
52432;SDS011;38352;53.244;6.594;2022-10-18T09:04:45;19.55;;;4.60;;
52432;SDS011;38352;53.244;6.594;2022-10-18T09:09:59;11.48;;;3.80;;
52432;SDS011;38352;53.244;6.594;2022-10-18T09:23:11;22.08;;;11.77;;
52432;SDS011;38352;53.244;6.594;2022-10-18T09:25:56;9.07;;;3.00;;
52432;SDS011;38352;53.244;6.594;2022-10-18T09:28:42;11.63;;;3.05;;
52432;SDS011;38352;53.244;6.594;2022-10-18T09:36:06;14.00;;;3.20;;
52432;SDS011;38352;53.244;6.594;2022-10-18T09:38:40;10.60;;;3.47;;
52432;SDS011;38352;53.244;6.594;2022-10-18T09:41:09;14.23;;;3.53;;
52432;SDS011;38352;53.244;6.594;2022-10-18T09:43:41;12.27;;;3.38;;
52432;SDS011;38352;53.244;6.594;2022-10-18T09:46:09;13.38;;;3.00;;
52432;SDS011;38352;53.244;6.594;2022-10-18T09:48:41;15.85;;;3.80;;
52432;SDS011;38352;53.244;6.594;2022-10-18T09:51:10;13.60;;;3.70;;
52432;SDS011;38352;53.244;6.594;2022-10-18T09:56:16;10.93;;;3.08;;
52432;SDS011;38352;53.244;6.594;2022-10-18T09:58:44;8.60;;;3.25;;
52432;SDS011;38352;53.244;6.594;2022-10-18T10:01:31;12.88;;;4.05;;
52432;SDS011;38352;53.244;6.594;2022-10-18T10:03:57;12.90;;;3.30;;
52432;SDS011;38352;53.244;6.594;2022-10-18T10:06:27;13.52;;;2.88;;
52432;SDS011;38352;53.244;6.594;2022-10-18T10:08:56;15.05;;;2.85;;
52432;SDS011;38352;53.244;6.594;2022-10-18T10:11:33;9.05;;;2.88;;
52432;SDS011;38352;53.244;6.594;2022-10-18T10:16:42;18.75;;;3.35;;
52432;SDS011;38352;53.244;6.594;2022-10-18T10:19:19;10.43;;;2.92;;
52432;SDS011;38352;53.244;6.594;2022-10-18T10:21:46;15.80;;;2.60;;
52432;SDS011;38352;53.244;6.594;2022-10-18T10:24:24;10.07;;;2.83;;
52432;SDS011;38352;53.244;6.594;2022-10-18T10:26:57;8.68;;;2.28;;
52432;SDS011;38352;53.244;6.594;2022-10-18T10:29:46;84.45;;;62.03;;
52432;SDS011;38352;53.244;6.594;2022-10-18T10:32:13;12.15;;;3.13;;
52432;SDS011;38352;53.244;6.594;2022-10-18T10:34:43;9.55;;;2.85;;
52432;SDS011;38352;53.244;6.594;2022-10-18T10:40:04;13.07;;;2.45;;
52432;SDS011;38352;53.244;6.594;2022-10-18T10:42:30;12.23;;;2.35;;
52432;SDS011;38352;53.244;6.594;2022-10-18T10:44:57;8.50;;;2.20;;
52432;SDS011;38352;53.244;6.594;2022-10-18T10:47:32;9.32;;;2.40;;
52432;SDS011;38352;53.244;6.594;2022-10-18T10:49:59;14.15;;;3.08;;
52432;SDS011;38352;53.244;6.594;2022-10-18T10:52:34;12.82;;;2.55;;
52432;SDS011;38352;53.244;6.594;2022-10-18T10:55:02;10.65;;;2.30;;
52432;SDS011;38352;53.244;6.594;2022-10-18T10:57:28;10.15;;;2.47;;
52432;SDS011;38352;53.244;6.594;2022-10-18T10:59:55;7.93;;;2.08;;
52432;SDS011;38352;53.244;6.594;2022-10-18T11:02:28;10.60;;;2.47;;
52432;SDS011;38352;53.244;6.594;2022-10-18T11:04:55;16.83;;;3.00;;
52432;SDS011;38352;53.244;6.594;2022-10-18T11:12:33;10.00;;;2.47;;
52432;SDS011;38352;53.244;6.594;2022-10-18T11:20:36;10.20;;;2.70;;
52432;SDS011;38352;53.244;6.594;2022-10-18T11:23:15;9.35;;;3.00;;
52432;SDS011;38352;53.244;6.594;2022-10-18T11:25:48;11.23;;;2.33;;
52432;SDS011;38352;53.244;6.594;2022-10-18T11:36:02;11.48;;;2.22;;
52432;SDS011;38352;53.244;6.594;2022-10-18T11:44:03;10.38;;;2.45;;
52432;SDS011;38352;53.244;6.594;2022-10-18T11:46:53;10.45;;;2.42;;
52432;SDS011;38352;53.244;6.594;2022-10-18T11:54:47;7.95;;;2.30;;
52432;SDS011;38352;53.244;6.594;2022-10-18T12:02:46;9.63;;;2.05;;
52432;SDS011;38352;53.244;6.594;2022-10-18T12:05:14;8.13;;;2.20;;
52432;SDS011;38352;53.244;6.594;2022-10-18T12:07:51;13.90;;;2.70;;
52432;SDS011;38352;53.244;6.594;2022-10-18T12:10:18;12.18;;;2.70;;
52432;SDS011;38352;53.244;6.594;2022-10-18T12:12:49;7.20;;;2.05;;
52432;SDS011;38352;53.244;6.594;2022-10-18T12:15:20;12.73;;;2.50;;
52432;SDS011;38352;53.244;6.594;2022-10-18T12:17:49;7.88;;;1.55;;
52432;SDS011;38352;53.244;6.594;2022-10-18T12:22:49;9.80;;;2.50;;
52432;SDS011;38352;53.244;6.594;2022-10-18T12:25:18;6.20;;;1.73;;
52432;SDS011;38352;53.244;6.594;2022-10-18T12:27:47;7.43;;;1.98;;
52432;SDS011;38352;53.244;6.594;2022-10-18T12:33:14;16.35;;;3.13;;
52432;SDS011;38352;53.244;6.594;2022-10-18T12:35:46;6.85;;;1.77;;
52432;SDS011;38352;53.244;6.594;2022-10-18T12:40:44;50.50;;;32.95;;
52432;SDS011;38352;53.244;6.594;2022-10-18T12:43:31;11.68;;;2.17;;
52432;SDS011;38352;53.244;6.594;2022-10-18T12:46:02;11.95;;;2.40;;
52432;SDS011;38352;53.244;6.594;2022-10-18T12:51:00;9.15;;;2.38;;
52432;SDS011;38352;53.244;6.594;2022-10-18T12:53:28;10.40;;;2.00;;
52432;SDS011;38352;53.244;6.594;2022-10-18T12:55:55;13.55;;;2.72;;
52432;SDS011;38352;53.244;6.594;2022-10-18T12:58:41;8.95;;;2.00;;
52432;SDS011;38352;53.244;6.594;2022-10-18T13:01:07;11.02;;;2.42;;
52432;SDS011;38352;53.244;6.594;2022-10-18T13:03:37;15.90;;;2.95;;
52432;SDS011;38352;53.244;6.594;2022-10-18T13:06:05;9.43;;;1.92;;
52432;SDS011;38352;53.244;6.594;2022-10-18T13:16:08;9.45;;;2.20;;
52432;SDS011;38352;53.244;6.594;2022-10-18T13:21:09;9.35;;;2.03;;
52432;SDS011;38352;53.244;6.594;2022-10-18T13:26:24;6.95;;;2.28;;
52432;SDS011;38352;53.244;6.594;2022-10-18T13:31:28;7.18;;;2.10;;
52432;SDS011;38352;53.244;6.594;2022-10-18T13:34:15;7.45;;;1.85;;
52432;SDS011;38352;53.244;6.594;2022-10-18T13:36:41;11.45;;;2.30;;
52432;SDS011;38352;53.244;6.594;2022-10-18T13:39:15;10.90;;;2.10;;
52432;SDS011;38352;53.244;6.594;2022-10-18T13:57:10;9.13;;;2.25;;
52432;SDS011;38352;53.244;6.594;2022-10-18T14:07:45;8.25;;;2.00;;
52432;SDS011;38352;53.244;6.594;2022-10-18T14:10:22;11.75;;;2.40;;
52432;SDS011;38352;53.244;6.594;2022-10-18T14:12:50;7.95;;;2.13;;
52432;SDS011;38352;53.244;6.594;2022-10-18T14:15:24;10.57;;;2.85;;
52432;SDS011;38352;53.244;6.594;2022-10-18T14:20:19;7.00;;;1.85;;
52432;SDS011;38352;53.244;6.594;2022-10-18T14:25:32;10.80;;;2.72;;
52432;SDS011;38352;53.244;6.594;2022-10-18T14:28:15;9.98;;;2.40;;
52432;SDS011;38352;53.244;6.594;2022-10-18T14:31:15;11.75;;;2.80;;
52432;SDS011;38352;53.244;6.594;2022-10-18T14:33:35;7.50;;;2.50;;
52432;SDS011;38352;53.244;6.594;2022-10-18T14:38:31;43.30;;;23.65;;
52432;SDS011;38352;53.244;6.594;2022-10-18T14:41:05;11.30;;;2.55;;
52432;SDS011;38352;53.244;6.594;2022-10-18T14:43:31;9.93;;;2.17;;
52432;SDS011;38352;53.244;6.594;2022-10-18T14:46:07;9.95;;;2.70;;
52432;SDS011;38352;53.244;6.594;2022-10-18T14:48:34;8.13;;;2.10;;
52432;SDS011;38352;53.244;6.594;2022-10-18T14:51:00;10.25;;;1.98;;
52432;SDS011;38352;53.244;6.594;2022-10-18T14:53:29;11.90;;;2.72;;
52432;SDS011;38352;53.244;6.594;2022-10-18T14:56:00;12.18;;;1.70;;
52432;SDS011;38352;53.244;6.594;2022-10-18T14:58:30;6.63;;;1.80;;
52432;SDS011;38352;53.244;6.594;2022-10-18T15:00:56;10.05;;;2.40;;
52432;SDS011;38352;53.244;6.594;2022-10-18T15:03:23;8.30;;;2.35;;
52432;SDS011;38352;53.244;6.594;2022-10-18T15:05:53;7.45;;;1.85;;
52432;SDS011;38352;53.244;6.594;2022-10-18T15:08:19;6.68;;;2.78;;
52432;SDS011;38352;53.244;6.594;2022-10-18T15:10:46;10.30;;;2.10;;
52432;SDS011;38352;53.244;6.594;2022-10-18T15:13:12;9.55;;;1.95;;
52432;SDS011;38352;53.244;6.594;2022-10-18T15:15:39;10.60;;;2.83;;
52432;SDS011;38352;53.244;6.594;2022-10-18T15:18:05;11.20;;;2.10;;
52432;SDS011;38352;53.244;6.594;2022-10-18T15:20:33;8.85;;;2.10;;
52432;SDS011;38352;53.244;6.594;2022-10-18T15:23:22;7.65;;;2.00;;
52432;SDS011;38352;53.244;6.594;2022-10-18T15:25:49;6.93;;;1.90;;
52432;SDS011;38352;53.244;6.594;2022-10-18T15:28:21;30.27;;;5.03;;
52432;SDS011;38352;53.244;6.594;2022-10-18T15:30:49;8.65;;;2.25;;
52432;SDS011;38352;53.244;6.594;2022-10-18T15:33:19;11.10;;;2.05;;
52432;SDS011;38352;53.244;6.594;2022-10-18T15:35:46;13.82;;;3.13;;
52432;SDS011;38352;53.244;6.594;2022-10-18T15:40:38;7.00;;;1.95;;
52432;SDS011;38352;53.244;6.594;2022-10-18T15:43:31;5.80;;;1.58;;
52432;SDS011;38352;53.244;6.594;2022-10-18T15:45:54;10.77;;;2.08;;
52432;SDS011;38352;53.244;6.594;2022-10-18T15:48:22;7.68;;;1.95;;
52432;SDS011;38352;53.244;6.594;2022-10-18T15:50:50;9.40;;;1.48;;
52432;SDS011;38352;53.244;6.594;2022-10-18T15:56:32;12.32;;;2.13;;
52432;SDS011;38352;53.244;6.594;2022-10-18T15:58:39;8.50;;;1.65;;
52432;SDS011;38352;53.244;6.594;2022-10-18T16:01:12;4.00;;;1.20;;
52432;SDS011;38352;53.244;6.594;2022-10-18T16:03:39;8.20;;;2.07;;
52432;SDS011;38352;53.244;6.594;2022-10-18T16:06:06;7.57;;;1.77;;
52432;SDS011;38352;53.244;6.594;2022-10-18T16:08:35;7.90;;;1.83;;
52432;SDS011;38352;53.244;6.594;2022-10-18T16:11:05;10.23;;;1.52;;
52432;SDS011;38352;53.244;6.594;2022-10-18T16:13:31;7.00;;;1.60;;
52432;SDS011;38352;53.244;6.594;2022-10-18T16:15:57;6.07;;;1.50;;
52432;SDS011;38352;53.244;6.594;2022-10-18T16:18:24;8.95;;;2.08;;
52432;SDS011;38352;53.244;6.594;2022-10-18T16:20:51;6.28;;;1.45;;
52432;SDS011;38352;53.244;6.594;2022-10-18T16:23:22;8.02;;;1.52;;
52432;SDS011;38352;53.244;6.594;2022-10-18T16:25:48;5.07;;;1.60;;
52432;SDS011;38352;53.244;6.594;2022-10-18T16:28:16;9.25;;;1.88;;
52432;SDS011;38352;53.244;6.594;2022-10-18T16:30:43;6.75;;;2.42;;
52432;SDS011;38352;53.244;6.594;2022-10-18T16:33:09;7.78;;;1.58;;
52432;SDS011;38352;53.244;6.594;2022-10-18T16:35:36;8.57;;;1.52;;
52432;SDS011;38352;53.244;6.594;2022-10-18T16:38:02;5.22;;;1.30;;
52432;SDS011;38352;53.244;6.594;2022-10-18T16:40:28;4.97;;;1.60;;
52432;SDS011;38352;53.244;6.594;2022-10-18T16:42:54;6.60;;;2.13;;
52432;SDS011;38352;53.244;6.594;2022-10-18T16:45:20;10.05;;;1.50;;
52432;SDS011;38352;53.244;6.594;2022-10-18T16:47:46;6.65;;;1.30;;
52432;SDS011;38352;53.244;6.594;2022-10-18T16:50:13;10.38;;;3.05;;
52432;SDS011;38352;53.244;6.594;2022-10-18T16:52:40;7.28;;;2.60;;
52432;SDS011;38352;53.244;6.594;2022-10-18T16:55:06;16.23;;;4.65;;
52432;SDS011;38352;53.244;6.594;2022-10-18T16:57:39;7.32;;;1.38;;
52432;SDS011;38352;53.244;6.594;2022-10-18T17:00:07;7.80;;;1.55;;
52432;SDS011;38352;53.244;6.594;2022-10-18T17:02:36;5.40;;;1.55;;
52432;SDS011;38352;53.244;6.594;2022-10-18T17:05:02;6.88;;;1.50;;
52432;SDS011;38352;53.244;6.594;2022-10-18T17:07:28;5.93;;;1.70;;
52432;SDS011;38352;53.244;6.594;2022-10-18T17:09:54;5.47;;;1.60;;
52432;SDS011;38352;53.244;6.594;2022-10-18T17:12:20;4.85;;;1.48;;
52432;SDS011;38352;53.244;6.594;2022-10-18T17:14:46;5.20;;;1.58;;
52432;SDS011;38352;53.244;6.594;2022-10-18T17:17:12;5.97;;;2.17;;
52432;SDS011;38352;53.244;6.594;2022-10-18T17:19:38;5.38;;;1.52;;
52432;SDS011;38352;53.244;6.594;2022-10-18T17:22:04;8.10;;;1.63;;
52432;SDS011;38352;53.244;6.594;2022-10-18T17:24:30;4.50;;;1.10;;